AAL816 KJFK-MMUN
Flight info
| Callsign | AAL816 |
|---|---|
| Flight time | N/A |
| Altitude | 40000 |
| Route | DCT WAVEY DCT EMJAY Q167 KALDA Q131 WAALT Y289 BAHAA DCT HIBAC AR17 VKZ DCT LINEY Y262 LULLS Y196 CANOA UB879 NOSAT DCT CUN DCT |
| Aircraft | B772/H-SDE2E3FGHIJ5LORVWXY/LB1D1 |
Departure
| Time | 2026-05-07 09:49 |
|---|---|
| Airport | John F. Kennedy International Airport (KJFK) |
Arrival
| Time | N/A |
|---|---|
| Airport | Cancún International Airport (MMUN) |
| Time | Latitude | Longitude | Altitude | Speed | Heading |
|---|---|---|---|---|---|
| 2026-05-07 09:31 | 40.64746 | -73.79413 | 28 ft | 0 kts | 150° |
| 2026-05-07 09:36 | 40.64752 | -73.79418 | 28 ft | 4 kts | 146° |
| 2026-05-07 09:36 | 40.64772 | -73.79440 | 28 ft | 4 kts | 146° |
| 2026-05-07 09:36 | 40.64791 | -73.79454 | 28 ft | 4 kts | 162° |
| 2026-05-07 09:37 | 40.64812 | -73.79455 | 28 ft | 4 kts | 226° |
| 2026-05-07 09:37 | 40.64826 | -73.79428 | 27 ft | 4 kts | 240° |
| 2026-05-07 09:37 | 40.64832 | -73.79412 | 28 ft | 0 kts | 240° |
| 2026-05-07 09:41 | 40.64822 | -73.79436 | 28 ft | 10 kts | 240° |
| 2026-05-07 09:41 | 40.64789 | -73.79530 | 28 ft | 12 kts | 241° |
| 2026-05-07 09:41 | 40.64728 | -73.79617 | 28 ft | 14 kts | 190° |
| 2026-05-07 09:42 | 40.64637 | -73.79560 | 28 ft | 15 kts | 146° |
| 2026-05-07 09:42 | 40.64530 | -73.79505 | 28 ft | 17 kts | 173° |
| 2026-05-07 09:42 | 40.64409 | -73.79493 | 29 ft | 17 kts | 176° |
| 2026-05-07 09:42 | 40.64285 | -73.79497 | 29 ft | 18 kts | 185° |
| 2026-05-07 09:43 | 40.64158 | -73.79508 | 29 ft | 18 kts | 182° |
| 2026-05-07 09:43 | 40.64045 | -73.79439 | 27 ft | 19 kts | 127° |
| 2026-05-07 09:43 | 40.63974 | -73.79290 | 25 ft | 19 kts | 120° |
| 2026-05-07 09:43 | 40.63907 | -73.79138 | 30 ft | 19 kts | 121° |
| 2026-05-07 09:44 | 40.63837 | -73.78989 | 27 ft | 19 kts | 122° |
| 2026-05-07 09:44 | 40.63766 | -73.78841 | 29 ft | 19 kts | 122° |
| 2026-05-07 09:44 | 40.63698 | -73.78691 | 33 ft | 19 kts | 121° |
| 2026-05-07 09:44 | 40.63637 | -73.78535 | 32 ft | 19 kts | 117° |
| 2026-05-07 09:45 | 40.63573 | -73.78381 | 32 ft | 19 kts | 122° |
| 2026-05-07 09:45 | 40.63500 | -73.78234 | 29 ft | 19 kts | 123° |
| 2026-05-07 09:45 | 40.63429 | -73.78086 | 29 ft | 19 kts | 121° |
| 2026-05-07 09:45 | 40.63363 | -73.77934 | 29 ft | 19 kts | 118° |
| 2026-05-07 09:46 | 40.63295 | -73.77783 | 32 ft | 19 kts | 122° |
| 2026-05-07 09:46 | 40.63229 | -73.77631 | 32 ft | 19 kts | 118° |
| 2026-05-07 09:46 | 40.63163 | -73.77481 | 34 ft | 19 kts | 122° |
| 2026-05-07 09:46 | 40.63093 | -73.77332 | 32 ft | 19 kts | 121° |
| 2026-05-07 09:47 | 40.63052 | -73.77243 | 32 ft | 0 kts | 121° |
| 2026-05-07 09:47 | 40.63052 | -73.77242 | 32 ft | 3 kts | 121° |
| 2026-05-07 09:47 | 40.63003 | -73.77197 | 31 ft | 9 kts | 176° |
| 2026-05-07 09:47 | 40.62931 | -73.77236 | 31 ft | 14 kts | 210° |
| 2026-05-07 09:48 | 40.62887 | -73.77277 | 30 ft | 0 kts | 230° |
| 2026-05-07 09:48 | 40.62886 | -73.77278 | 30 ft | 4 kts | 230° |
| 2026-05-07 09:48 | 40.62882 | -73.77345 | 31 ft | 7 kts | 298° |
| 2026-05-07 09:48 | 40.62929 | -73.77455 | 32 ft | 28 kts | 300° |
| 2026-05-07 09:49 | 40.63150 | -73.77959 | 32 ft | 99 kts | 301° |
| 2026-05-07 09:49 | 40.63622 | -73.79010 | 52 ft | 166 kts | 299° |
| 2026-05-07 09:49 | 40.64309 | -73.80281 | 978 ft | 171 kts | 300° |
| 2026-05-07 09:49 | 40.64948 | -73.81607 | 1922 ft | 175 kts | 285° |
| 2026-05-07 09:50 | 40.65472 | -73.83151 | 2445 ft | 189 kts | 280° |
| 2026-05-07 09:50 | 40.65575 | -73.84836 | 2986 ft | 187 kts | 252° |
| 2026-05-07 09:50 | 40.65009 | -73.86348 | 3715 ft | 185 kts | 229° |
| 2026-05-07 09:50 | 40.63987 | -73.87377 | 4458 ft | 190 kts | 204° |
| 2026-05-07 09:51 | 40.62696 | -73.87858 | 4969 ft | 196 kts | 200° |
| 2026-05-07 09:51 | 40.61405 | -73.88328 | 5115 ft | 191 kts | 200° |
| 2026-05-07 09:51 | 40.60103 | -73.88739 | 5646 ft | 197 kts | 189° |
| 2026-05-07 09:51 | 40.58667 | -73.88419 | 6048 ft | 227 kts | 168° |
| 2026-05-07 09:52 | 40.57100 | -73.87581 | 6405 ft | 254 kts | 163° |
| 2026-05-07 09:52 | 40.55457 | -73.86618 | 7183 ft | 261 kts | 163° |
| 2026-05-07 09:52 | 40.53784 | -73.85659 | 8015 ft | 261 kts | 168° |
| 2026-05-07 09:52 | 40.52024 | -73.85215 | 8726 ft | 259 kts | 181° |
| 2026-05-07 09:53 | 40.50220 | -73.85010 | 9643 ft | 259 kts | 180° |
| 2026-05-07 09:53 | 40.48451 | -73.84306 | 10277 ft | 282 kts | 158° |
| 2026-05-07 09:53 | 40.46884 | -73.82480 | 10467 ft | 323 kts | 135° |
| 2026-05-07 09:53 | 40.45536 | -73.79997 | 10656 ft | 353 kts | 131° |
| 2026-05-07 09:54 | 40.44568 | -73.78178 | 10943 ft | 367 kts | 131° |
| 2026-05-07 09:54 | 40.42594 | -73.74457 | 11998 ft | 380 kts | 131° |
| 2026-05-07 09:54 | 40.41567 | -73.72529 | 12634 ft | 384 kts | 131° |
| 2026-05-07 09:54 | 40.39511 | -73.68695 | 13959 ft | 391 kts | 131° |
| 2026-05-07 09:55 | 40.37931 | -73.65773 | 14884 ft | 396 kts | 131° |
| 2026-05-07 09:55 | 40.36846 | -73.63777 | 15477 ft | 400 kts | 131° |
| 2026-05-07 09:55 | 40.35213 | -73.60782 | 16356 ft | 407 kts | 130° |
| 2026-05-07 09:55 | 40.33549 | -73.57737 | 17232 ft | 415 kts | 130° |
| 2026-05-07 09:56 | 40.31852 | -73.54632 | 18125 ft | 422 kts | 130° |
| 2026-05-07 09:56 | 40.30126 | -73.51479 | 18884 ft | 429 kts | 130° |
| 2026-05-07 09:56 | 40.28372 | -73.48275 | 19655 ft | 436 kts | 130° |
| 2026-05-07 09:56 | 40.26608 | -73.45061 | 20395 ft | 444 kts | 130° |
| 2026-05-07 09:57 | 40.24739 | -73.41836 | 21144 ft | 448 kts | 135° |
| 2026-05-07 09:57 | 40.22583 | -73.38873 | 21902 ft | 451 kts | 141° |
| 2026-05-07 09:57 | 40.20196 | -73.36201 | 22658 ft | 453 kts | 148° |
| 2026-05-07 09:57 | 40.17610 | -73.33826 | 23366 ft | 457 kts | 151° |
| 2026-05-07 09:58 | 40.14956 | -73.31544 | 23897 ft | 454 kts | 157° |
| 2026-05-07 09:58 | 40.12001 | -73.30201 | 24290 ft | 449 kts | 177° |
| 2026-05-07 09:58 | 40.08906 | -73.30122 | 24768 ft | 444 kts | 192° |
| 2026-05-07 09:58 | 40.05942 | -73.31080 | 25470 ft | 435 kts | 206° |
| 2026-05-07 09:59 | 40.03253 | -73.32804 | 26116 ft | 428 kts | 219° |
| 2026-05-07 09:59 | 40.00981 | -73.35253 | 26563 ft | 426 kts | 226° |
| 2026-05-07 09:59 | 39.98765 | -73.37854 | 26993 ft | 432 kts | 226° |
| 2026-05-07 09:59 | 39.96507 | -73.40471 | 27526 ft | 435 kts | 226° |
| 2026-05-07 10:00 | 39.94224 | -73.43071 | 28082 ft | 438 kts | 225° |
| 2026-05-07 10:00 | 39.91903 | -73.45679 | 28547 ft | 442 kts | 225° |
| 2026-05-07 10:00 | 39.89559 | -73.48295 | 28950 ft | 447 kts | 225° |
| 2026-05-07 10:00 | 39.87186 | -73.50935 | 29386 ft | 450 kts | 225° |
| 2026-05-07 10:01 | 39.84793 | -73.53593 | 29835 ft | 452 kts | 225° |
| 2026-05-07 10:01 | 39.82394 | -73.56257 | 30209 ft | 455 kts | 226° |
| 2026-05-07 10:01 | 39.79983 | -73.58935 | 30521 ft | 457 kts | 226° |
| 2026-05-07 10:01 | 39.77562 | -73.61621 | 30819 ft | 459 kts | 226° |
| 2026-05-07 10:02 | 39.75126 | -73.64322 | 31125 ft | 460 kts | 226° |
| 2026-05-07 10:02 | 39.72691 | -73.67019 | 31505 ft | 459 kts | 226° |
| 2026-05-07 10:02 | 39.70272 | -73.69695 | 31978 ft | 456 kts | 227° |
| 2026-05-07 10:02 | 39.67861 | -73.72359 | 32434 ft | 454 kts | 227° |
| 2026-05-07 10:03 | 39.65486 | -73.74982 | 32858 ft | 453 kts | 227° |
| 2026-05-07 10:03 | 39.63094 | -73.77623 | 33265 ft | 452 kts | 227° |
| 2026-05-07 10:03 | 39.60702 | -73.80263 | 33686 ft | 450 kts | 228° |
| 2026-05-07 10:03 | 39.58321 | -73.82888 | 34112 ft | 448 kts | 228° |
| 2026-05-07 10:04 | 39.55947 | -73.85502 | 34492 ft | 447 kts | 228° |
| 2026-05-07 10:04 | 39.53578 | -73.88108 | 34849 ft | 446 kts | 229° |
| 2026-05-07 10:04 | 39.51222 | -73.90699 | 35217 ft | 445 kts | 229° |
| 2026-05-07 10:04 | 39.48859 | -73.93295 | 35589 ft | 444 kts | 229° |
| 2026-05-07 10:05 | 39.46509 | -73.95875 | 35945 ft | 443 kts | 229° |
| 2026-05-07 10:05 | 39.44159 | -73.98454 | 36299 ft | 442 kts | 230° |
| 2026-05-07 10:05 | 39.41817 | -74.01018 | 36658 ft | 441 kts | 230° |
| 2026-05-07 10:05 | 39.39490 | -74.03561 | 37167 ft | 437 kts | 230° |
| 2026-05-07 10:06 | 39.37171 | -74.06094 | 37508 ft | 435 kts | 231° |
| 2026-05-07 10:06 | 39.34853 | -74.08632 | 37700 ft | 437 kts | 231° |
| 2026-05-07 10:06 | 39.32525 | -74.11181 | 37948 ft | 438 kts | 231° |
| 2026-05-07 10:06 | 39.30205 | -74.13717 | 38303 ft | 437 kts | 231° |
| 2026-05-07 10:07 | 39.27889 | -74.16243 | 38673 ft | 435 kts | 231° |
| 2026-05-07 10:07 | 39.25581 | -74.18759 | 38910 ft | 434 kts | 231° |
| 2026-05-07 10:07 | 39.23271 | -74.21278 | 39100 ft | 435 kts | 231° |
| 2026-05-07 10:07 | 39.20956 | -74.23800 | 39295 ft | 436 kts | 231° |
| 2026-05-07 10:08 | 39.18643 | -74.26319 | 39505 ft | 436 kts | 231° |
| 2026-05-07 10:08 | 39.16323 | -74.28842 | 39637 ft | 437 kts | 231° |
| 2026-05-07 10:08 | 39.13989 | -74.31380 | 39785 ft | 439 kts | 230° |
| 2026-05-07 10:08 | 39.11653 | -74.33916 | 39899 ft | 441 kts | 230° |
| 2026-05-07 10:09 | 39.09305 | -74.36462 | 39937 ft | 442 kts | 230° |
| 2026-05-07 10:09 | 39.04624 | -74.41522 | 39976 ft | 435 kts | 230° |
| 2026-05-07 10:10 | 39.00010 | -74.46513 | 39990 ft | 434 kts | 230° |
| 2026-05-07 10:10 | 38.95387 | -74.51508 | 39980 ft | 434 kts | 231° |
| 2026-05-07 10:11 | 38.90832 | -74.56596 | 39984 ft | 432 kts | 233° |
| 2026-05-07 10:11 | 38.86426 | -74.61831 | 39990 ft | 432 kts | 233° |
| 2026-05-07 10:12 | 38.81991 | -74.67059 | 39985 ft | 434 kts | 233° |
| 2026-05-07 10:12 | 38.77525 | -74.72271 | 39963 ft | 434 kts | 233° |
| 2026-05-07 10:13 | 38.72962 | -74.77393 | 39990 ft | 439 kts | 230° |
| 2026-05-07 10:13 | 38.68228 | -74.82300 | 39995 ft | 441 kts | 230° |
| 2026-05-07 10:14 | 38.63421 | -74.87268 | 39991 ft | 442 kts | 230° |
| 2026-05-07 10:14 | 38.58655 | -74.92222 | 39978 ft | 442 kts | 230° |
| 2026-05-07 10:15 | 38.53912 | -74.97148 | 39995 ft | 442 kts | 230° |
| 2026-05-07 10:15 | 38.49245 | -75.02210 | 40005 ft | 439 kts | 232° |
| 2026-05-07 10:16 | 38.44510 | -75.07261 | 40009 ft | 445 kts | 228° |
| 2026-05-07 10:16 | 38.39541 | -75.11956 | 39975 ft | 444 kts | 228° |
| 2026-05-07 10:17 | 38.34609 | -75.16595 | 40002 ft | 443 kts | 228° |
| 2026-05-07 10:17 | 38.29665 | -75.21275 | 40009 ft | 443 kts | 228° |
| 2026-05-07 10:18 | 38.24721 | -75.25963 | 40009 ft | 444 kts | 228° |
| 2026-05-07 10:18 | 38.19759 | -75.30659 | 40006 ft | 445 kts | 228° |
| 2026-05-07 10:19 | 38.14773 | -75.35369 | 39992 ft | 446 kts | 228° |
| 2026-05-07 10:19 | 38.09782 | -75.40077 | 39996 ft | 447 kts | 228° |
| 2026-05-07 10:20 | 38.04774 | -75.44787 | 40003 ft | 448 kts | 228° |
| 2026-05-07 10:20 | 37.99620 | -75.49311 | 40004 ft | 451 kts | 226° |
| 2026-05-07 10:21 | 37.94413 | -75.53757 | 40022 ft | 451 kts | 226° |
| 2026-05-07 10:21 | 37.89233 | -75.58238 | 40021 ft | 452 kts | 226° |
| 2026-05-07 10:22 | 37.83960 | -75.62644 | 40022 ft | 460 kts | 222° |
| 2026-05-07 10:22 | 37.81075 | -75.64506 | 40002 ft | 471 kts | 216° |
| 2026-05-07 10:22 | 37.78081 | -75.66194 | 39995 ft | 472 kts | 216° |
| 2026-05-07 10:23 | 37.72063 | -75.69543 | 40005 ft | 473 kts | 216° |
| 2026-05-07 10:23 | 37.66053 | -75.72921 | 40009 ft | 473 kts | 216° |
| 2026-05-07 10:24 | 37.60048 | -75.76324 | 40011 ft | 473 kts | 216° |
| 2026-05-07 10:24 | 37.54040 | -75.79732 | 40025 ft | 473 kts | 216° |
| 2026-05-07 10:25 | 37.48047 | -75.83122 | 40016 ft | 472 kts | 216° |
| 2026-05-07 10:25 | 37.42094 | -75.86483 | 40017 ft | 470 kts | 216° |
| 2026-05-07 10:26 | 37.36130 | -75.89845 | 40022 ft | 469 kts | 216° |
| 2026-05-07 10:26 | 37.30170 | -75.93201 | 40020 ft | 469 kts | 216° |
| 2026-05-07 10:27 | 37.24271 | -75.96519 | 40029 ft | 471 kts | 216° |
| 2026-05-07 10:27 | 37.18302 | -75.99869 | 40031 ft | 473 kts | 216° |
| 2026-05-07 10:28 | 37.12312 | -76.03232 | 40004 ft | 472 kts | 217° |
| 2026-05-07 10:28 | 37.06603 | -76.07044 | 40032 ft | 466 kts | 221° |
| 2026-05-07 10:29 | 37.00980 | -76.10968 | 40031 ft | 467 kts | 221° |
| 2026-05-07 10:29 | 36.95322 | -76.14897 | 40041 ft | 468 kts | 221° |
| 2026-05-07 10:30 | 36.86879 | -76.20707 | 40020 ft | 465 kts | 221° |
| 2026-05-07 10:30 | 36.81258 | -76.24563 | 40027 ft | 465 kts | 221° |
| 2026-05-07 10:31 | 36.75597 | -76.28443 | 40056 ft | 464 kts | 221° |
| 2026-05-07 10:31 | 36.69932 | -76.32321 | 40052 ft | 465 kts | 221° |
| 2026-05-07 10:32 | 36.64306 | -76.36164 | 40052 ft | 465 kts | 221° |
| 2026-05-07 10:32 | 36.58646 | -76.40025 | 40058 ft | 467 kts | 221° |
| 2026-05-07 10:33 | 36.52945 | -76.43908 | 40052 ft | 468 kts | 221° |
| 2026-05-07 10:33 | 36.47232 | -76.47789 | 40052 ft | 469 kts | 221° |
| 2026-05-07 10:34 | 36.41499 | -76.51677 | 40061 ft | 470 kts | 221° |
| 2026-05-07 10:34 | 36.35756 | -76.55566 | 40051 ft | 470 kts | 221° |
| 2026-05-07 10:35 | 36.30009 | -76.59452 | 40050 ft | 470 kts | 221° |
| 2026-05-07 10:35 | 36.24264 | -76.63329 | 40060 ft | 470 kts | 221° |
| 2026-05-07 10:36 | 36.18516 | -76.67203 | 40060 ft | 470 kts | 221° |
| 2026-05-07 10:36 | 36.12757 | -76.71079 | 40057 ft | 472 kts | 221° |
| 2026-05-07 10:37 | 36.07024 | -76.74930 | 40056 ft | 472 kts | 221° |
| 2026-05-07 10:37 | 36.01250 | -76.78802 | 40035 ft | 473 kts | 221° |
| 2026-05-07 10:38 | 35.95460 | -76.82682 | 40050 ft | 474 kts | 221° |
| 2026-05-07 10:38 | 35.89637 | -76.86559 | 40076 ft | 477 kts | 220° |
| 2026-05-07 10:39 | 35.83691 | -76.90253 | 40079 ft | 480 kts | 219° |
| 2026-05-07 10:39 | 35.77703 | -76.93873 | 40055 ft | 478 kts | 219° |
| 2026-05-07 10:40 | 35.71748 | -76.97497 | 40072 ft | 477 kts | 219° |
| 2026-05-07 10:40 | 35.65818 | -77.01130 | 40082 ft | 476 kts | 219° |
| 2026-05-07 10:41 | 35.59887 | -77.04767 | 40084 ft | 477 kts | 219° |
| 2026-05-07 10:41 | 35.53978 | -77.08384 | 40050 ft | 477 kts | 219° |
| 2026-05-07 10:42 | 35.48021 | -77.12021 | 40078 ft | 479 kts | 219° |
| 2026-05-07 10:42 | 35.42051 | -77.15662 | 40087 ft | 480 kts | 219° |
| 2026-05-07 10:43 | 35.37034 | -77.18715 | 40082 ft | 481 kts | 219° |
| 2026-05-07 10:43 | 35.31027 | -77.22364 | 40084 ft | 482 kts | 219° |
| 2026-05-07 10:44 | 35.25017 | -77.26006 | 40085 ft | 481 kts | 219° |
| 2026-05-07 10:44 | 35.19034 | -77.29627 | 40077 ft | 479 kts | 219° |
| 2026-05-07 10:45 | 35.13074 | -77.33229 | 40084 ft | 477 kts | 219° |
| 2026-05-07 10:45 | 35.07132 | -77.36818 | 40072 ft | 476 kts | 219° |
| 2026-05-07 10:46 | 35.01195 | -77.40399 | 40097 ft | 477 kts | 219° |
| 2026-05-07 10:46 | 34.95237 | -77.43986 | 40100 ft | 478 kts | 218° |
| 2026-05-07 10:47 | 34.89265 | -77.47574 | 40103 ft | 479 kts | 218° |
| 2026-05-07 10:47 | 34.83321 | -77.51139 | 40073 ft | 480 kts | 218° |
| 2026-05-07 10:48 | 34.77310 | -77.54739 | 40096 ft | 482 kts | 218° |
| 2026-05-07 10:48 | 34.71277 | -77.58347 | 40107 ft | 484 kts | 218° |
| 2026-05-07 10:49 | 34.65223 | -77.61962 | 40099 ft | 485 kts | 218° |
| 2026-05-07 10:49 | 34.59164 | -77.65565 | 40070 ft | 485 kts | 217° |
| 2026-05-07 10:50 | 34.52691 | -77.68397 | 40086 ft | 505 kts | 205° |
| 2026-05-07 10:50 | 34.45774 | -77.70145 | 40093 ft | 508 kts | 202° |
| 2026-05-07 10:51 | 34.38842 | -77.71819 | 40091 ft | 507 kts | 202° |
| 2026-05-07 10:51 | 34.31939 | -77.73542 | 40083 ft | 505 kts | 203° |
| 2026-05-07 10:52 | 34.25057 | -77.75295 | 40085 ft | 505 kts | 203° |
| 2026-05-07 10:52 | 34.18179 | -77.77048 | 40088 ft | 505 kts | 203° |
| 2026-05-07 10:53 | 34.11343 | -77.78783 | 40055 ft | 505 kts | 203° |
| 2026-05-07 10:53 | 34.04469 | -77.80523 | 40087 ft | 505 kts | 203° |
| 2026-05-07 10:54 | 33.97578 | -77.82265 | 40096 ft | 506 kts | 203° |
| 2026-05-07 10:54 | 33.90684 | -77.84005 | 40088 ft | 507 kts | 202° |
| 2026-05-07 10:55 | 33.83780 | -77.85745 | 40084 ft | 507 kts | 202° |
| 2026-05-07 10:55 | 33.76919 | -77.87609 | 40089 ft | 501 kts | 206° |
| 2026-05-07 10:56 | 33.70226 | -77.89907 | 40096 ft | 500 kts | 207° |
| 2026-05-07 10:56 | 33.63527 | -77.92223 | 40090 ft | 501 kts | 207° |